Time;durP1;ratioP1;P1;durP2;ratioP2;P2;SDS_P1;SDS_P2;PMS_P1;PMS_P2;Temp;Humidity;BMP_temperature;BMP_pressure;BME280_temperature;BME280_humidity;BME280_pressure;Samples;Min_cycle;Max_cycle;Signal;HPM_P1;HPM_P2
2023/08/21 00:02:14;;;;;;;5.50;4.55;;;;;;;-141.84;70.85;21448.19;5044291;28;20237;-62
2023/08/21 00:04:43;;;;;;;5.38;4.43;;;;;;;-141.84;70.55;21403.47;5045319;28;20727;-61
2023/08/21 00:07:11;;;;;;;5.55;4.22;;;;;;;-141.84;70.38;21431.94;5044572;28;20265;-61
2023/08/21 00:09:40;;;;;;;4.10;3.80;;;;;;;-141.84;70.32;21431.94;5036638;28;20311;-61
2023/08/21 00:12:10;;;;;;;4.82;4.32;;;;;;;-141.84;70.16;21429.91;5034402;28;20266;-61
2023/08/21 00:14:38;;;;;;;4.90;4.40;;;;;;;-141.84;70.53;21427.88;5030386;28;20295;-61
2023/08/21 00:17:07;;;;;;;4.30;4.00;;;;;;;-141.84;69.97;21454.28;5043652;28;20293;-61
2023/08/21 00:19:36;;;;;;;4.55;4.10;;;;;;;-141.84;70.50;21448.19;5036742;28;20213;-61
2023/08/21 00:22:04;;;;;;;5.30;4.05;;;;;;;-141.84;70.32;21440.06;5043875;28;20236;-61
2023/08/21 00:24:33;;;;;;;4.68;4.28;;;;;;;-141.84;70.91;21421.75;5044178;28;20235;-61
2023/08/21 00:27:03;;;;;;;5.65;4.93;;;;;;;-141.84;70.67;21458.38;5044320;28;20233;-62
2023/08/21 00:29:33;;;;;;;4.38;3.97;;;;;;;-141.84;71.22;21387.19;5038194;28;20251;-61
2023/08/21 00:32:01;;;;;;;4.45;4.05;;;;;;;-141.84;71.09;21405.50;5051800;28;20628;-61
2023/08/21 00:34:30;;;;;;;4.95;4.38;;;;;;;-141.84;70.25;21401.44;5044628;28;20677;-62
2023/08/21 00:36:58;;;;;;;4.80;4.30;;;;;;;-141.84;70.85;21411.59;5043959;28;20275;-60
2023/08/21 00:39:27;;;;;;;4.82;3.88;;;;;;;-141.84;70.43;21421.75;5035979;28;20333;-63
2023/08/21 00:41:56;;;;;;;4.07;3.78;;;;;;;-141.84;71.51;21397.38;5044183;28;20265;-61
2023/08/21 00:44:24;;;;;;;5.22;4.40;;;;;;;-141.84;71.40;21438.03;5043341;28;20257;-61
2023/08/21 00:46:54;;;;;;;4.32;3.80;;;;;;;-141.84;71.61;21375.00;5042900;28;20392;-61
2023/08/21 00:49:23;;;;;;;4.85;4.22;;;;;;;-141.84;72.04;21399.41;5043577;28;20652;-60
2023/08/21 00:51:52;;;;;;;4.53;4.13;;;;;;;-141.84;72.73;21320.09;5043453;28;20260;-61
2023/08/21 00:54:21;;;;;;;4.72;4.32;;;;;;;-141.84;73.05;21314.00;5031939;28;20261;-60
2023/08/21 00:56:52;;;;;;;5.22;4.72;;;;;;;-141.84;73.25;21291.66;5024257;28;20244;-61
2023/08/21 00:59:21;;;;;;;4.60;4.15;;;;;;;-141.84;73.66;21309.94;5020590;28;20558;-60
2023/08/21 01:01:50;;;;;;;5.07;3.90;;;;;;;-141.84;73.87;21322.13;5005113;28;20264;-62
2023/08/21 01:04:19;;;;;;;6.30;4.40;;;;;;;-141.84;74.22;21289.59;5043102;28;20303;-62
2023/08/21 01:06:49;;;;;;;4.55;4.15;;;;;;;-141.84;74.92;21234.72;5043845;28;20604;-62
2023/08/21 01:09:26;;;;;;;4.97;4.47;;;;;;;-141.84;75.70;21230.66;5043781;28;20323;-61
2023/08/21 01:12:06;;;;;;;5.10;4.38;;;;;;;-141.84;75.77;21236.75;5044001;28;20595;-61
2023/08/21 01:14:44;;;;;;;5.38;4.25;;;;;;;-141.84;75.74;21218.44;5043389;28;20263;-61
2023/08/21 01:17:14;;;;;;;5.43;4.25;;;;;;;-141.84;74.52;21267.25;5042904;28;20274;-60
2023/08/21 01:19:48;;;;;;;5.75;4.47;;;;;;;-141.84;73.72;21263.19;5035882;28;20225;-62
2023/08/21 01:22:17;;;;;;;5.38;4.72;;;;;;;-141.84;73.83;21253.00;5043558;28;20238;-61
2023/08/21 01:24:47;;;;;;;6.00;4.70;;;;;;;-141.84;74.37;21244.88;5043164;28;20263;-62
2023/08/21 01:27:16;;;;;;;5.47;4.40;;;;;;;-141.84;74.53;21261.16;5043038;28;20264;-61
2023/08/21 01:29:44;;;;;;;4.72;4.32;;;;;;;-141.84;74.33;21222.53;5038323;28;20247;-61
2023/08/21 01:32:22;;;;;;;4.60;4.20;;;;;;;-141.84;74.01;21226.59;5062805;28;20299;-62
2023/08/21 01:34:52;;;;;;;5.90;4.70;;;;;;;-141.84;74.59;21269.28;5062975;28;20597;-62
2023/08/21 01:37:22;;;;;;;4.88;4.47;;;;;;;-141.84;75.21;21206.25;5062889;28;20344;-61
2023/08/21 01:39:51;;;;;;;4.20;3.83;;;;;;;-141.84;75.84;21232.69;5057935;28;20235;-62
2023/08/21 01:42:20;;;;;;;4.82;4.30;;;;;;;-141.84;76.27;21169.66;5062709;28;20232;-61
2023/08/21 01:44:48;;;;;;;4.70;4.28;;;;;;;-141.84;76.25;21181.84;5062345;28;20319;-61
2023/08/21 01:47:17;;;;;;;5.38;4.43;;;;;;;-141.84;73.22;21244.88;5046737;28;20205;-61
2023/08/21 01:49:45;;;;;;;5.25;4.72;;;;;;;-141.84;72.26;21293.69;5035012;28;20807;-61
2023/08/21 01:52:14;;;;;;;5.05;4.55;;;;;;;-141.84;72.19;21316.03;5043023;28;20264;-60
2023/08/21 01:54:43;;;;;;;5.10;4.60;;;;;;;-141.84;73.22;21281.47;5051048;28;20327;-61
2023/08/21 01:57:12;;;;;;;5.15;4.65;;;;;;;-141.84;74.52;21261.16;5045873;28;20312;-60
2023/08/21 01:59:41;;;;;;;5.07;4.57;;;;;;;-141.84;75.29;21236.75;5034309;28;20236;-60
2023/08/21 02:02:10;;;;;;;5.63;4.60;;;;;;;-141.84;75.15;21248.94;5042391;28;20252;-61
2023/08/21 02:04:38;;;;;;;5.22;4.50;;;;;;;-141.84;75.50;21173.72;5043127;28;20224;-61
2023/08/21 02:07:07;;;;;;;4.75;4.35;;;;;;;-141.84;76.15;21187.97;5042346;28;20775;-62
2023/08/21 02:09:35;;;;;;;6.28;4.32;;;;;;;-141.84;76.63;21187.97;5034469;28;20309;-61
2023/08/21 02:12:05;;;;;;;6.03;4.57;;;;;;;-141.84;76.42;21196.09;5042482;28;20693;-62
2023/08/21 02:14:34;;;;;;;6.20;4.60;;;;;;;-141.84;77.01;21175.75;5041872;28;20299;-60
2023/08/21 02:17:03;;;;;;;4.82;4.32;;;;;;;-141.84;76.82;21175.75;5042505;28;20259;-62
2023/08/21 02:19:31;;;;;;;4.80;4.40;;;;;;;-141.84;77.00;21161.53;5034466;28;20739;-62
2023/08/21 02:22:00;;;;;;;5.00;4.28;;;;;;;-141.84;77.41;21139.16;5042311;28;20256;-60
2023/08/21 02:24:28;;;;;;;5.75;4.72;;;;;;;-141.84;77.95;21124.94;5042147;28;20237;-61
2023/08/21 02:26:57;;;;;;;5.35;4.70;;;;;;;-141.84;78.18;21106.63;5042590;28;20252;-62
2023/08/21 02:29:25;;;;;;;6.47;4.65;;;;;;;-141.84;78.01;21096.47;5036999;28;20703;-63
2023/08/21 02:31:55;;;;;;;6.10;5.25;;;;;;;-141.84;77.78;21110.69;5062541;28;20207;-61
2023/08/21 02:34:24;;;;;;;5.25;4.75;;;;;;;-141.84;78.18;21084.28;5062435;28;20228;-63
2023/08/21 02:36:52;;;;;;;5.53;5.00;;;;;;;-141.84;78.71;21072.06;5062158;28;20311;-60
2023/08/21 02:39:21;;;;;;;7.57;5.05;;;;;;;-141.84;79.14;21114.75;5061634;28;20235;-62
2023/08/21 02:41:49;;;;;;;5.80;4.75;;;;;;;-141.84;79.48;21065.97;5056140;28;20242;-60
2023/08/21 02:44:18;;;;;;;4.82;4.40;;;;;;;-141.84;80.16;21021.25;5056949;28;20263;-61
2023/08/21 02:46:46;;;;;;;6.18;5.20;;;;;;;-141.84;79.91;21007.00;5042437;28;20240;-62
2023/08/21 02:49:16;;;;;;;5.50;5.00;;;;;;;-141.84;79.45;21035.47;5041648;28;20279;-61
2023/08/21 02:51:44;;;;;;;6.95;5.05;;;;;;;-141.84;79.10;21061.91;5028896;28;20325;-61
2023/08/21 02:54:13;;;;;;;5.70;5.20;;;;;;;-141.84;79.47;21039.53;5040466;28;20221;-62
2023/08/21 02:56:41;;;;;;;6.40;5.20;;;;;;;-141.84;79.57;21029.38;5041867;28;20249;-61
2023/08/21 02:59:10;;;;;;;6.70;5.20;;;;;;;-141.84;79.34;21035.47;5039357;28;20288;-62
2023/08/21 03:01:38;;;;;;;6.82;5.00;;;;;;;-141.84;79.79;21013.13;5033852;28;20207;-61
2023/08/21 03:04:07;;;;;;;5.13;4.65;;;;;;;-141.84;79.82;20980.59;5041819;28;20240;-60
2023/08/21 03:06:37;;;;;;;6.82;5.03;;;;;;;-141.84;80.33;21015.16;5043386;28;20225;-61
2023/08/21 03:09:05;;;;;;;5.90;5.40;;;;;;;-141.84;80.71;21015.16;5045466;28;20252;-62
2023/08/21 03:11:33;;;;;;;6.65;5.10;;;;;;;-141.84;80.50;20992.78;5037265;28;20463;-62
2023/08/21 03:14:02;;;;;;;6.35;4.97;;;;;;;-141.84;80.67;20974.50;5045629;28;20300;-60
2023/08/21 03:16:30;;;;;;;5.13;4.63;;;;;;;-141.84;80.99;20978.56;5045877;28;20251;-61
2023/08/21 03:19:00;;;;;;;6.32;5.72;;;;;;;-141.84;78.70;21057.84;5043798;28;20581;-62
2023/08/21 03:21:29;;;;;;;8.32;5.28;;;;;;;-141.84;77.62;21092.41;5033856;28;20233;-61
2023/08/21 03:24:00;;;;;;;8.52;5.85;;;;;;;-141.84;76.12;21151.34;5036218;28;20234;-61
2023/08/21 03:26:32;;;;;;;7.45;5.63;;;;;;;-141.84;75.81;21110.69;5025177;28;20302;-62
2023/08/21 03:29:01;;;;;;;5.72;5.22;;;;;;;-141.84;76.09;21070.03;5021496;28;20588;-60
2023/08/21 03:31:30;;;;;;;8.88;5.82;;;;;;;-141.84;76.19;21194.06;5016583;28;20649;-60
2023/08/21 03:33:58;;;;;;;6.18;5.55;;;;;;;-141.84;75.26;21102.56;5023819;28;20236;-61
2023/08/21 03:36:31;;;;;;;6.30;5.47;;;;;;;-141.84;75.59;21100.53;5025592;28;20514;-61
2023/08/21 03:39:01;;;;;;;7.53;5.78;;;;;;;-141.84;75.41;21078.16;5024895;28;20708;-61
2023/08/21 03:41:30;;;;;;;6.88;5.82;;;;;;;-141.84;74.75;21153.41;5017303;28;20305;-62
2023/08/21 03:43:58;;;;;;;6.57;5.88;;;;;;;-141.84;75.58;21086.31;5025279;28;20233;-61
2023/08/21 03:46:27;;;;;;;7.43;6.40;;;;;;;-141.84;75.56;21057.84;5025907;28;20241;-60
2023/08/21 03:48:55;;;;;;;6.80;5.93;;;;;;;-141.84;76.39;21096.47;5029414;28;20229;-62
2023/08/21 03:51:24;;;;;;;6.13;5.53;;;;;;;-141.84;76.35;21027.34;5043196;28;20235;-61
2023/08/21 03:53:52;;;;;;;8.52;6.07;;;;;;;-141.84;76.31;21049.72;5041031;28;20229;-60
2023/08/21 03:56:23;;;;;;;6.93;5.57;;;;;;;-141.84;76.85;21068.00;5024997;28;20249;-62
2023/08/21 03:58:52;;;;;;;6.13;5.63;;;;;;;-141.84;77.36;21035.47;5025537;28;20206;-60
2023/08/21 04:01:20;;;;;;;6.93;6.22;;;;;;;-141.84;77.62;21023.28;5024719;28;20262;-61
2023/08/21 04:03:49;;;;;;;6.38;5.78;;;;;;;-141.84;78.11;21045.63;5032260;28;20229;-62
2023/08/21 04:06:17;;;;;;;6.75;5.60;;;;;;;-141.84;78.35;21033.44;5044806;28;20324;-61
2023/08/21 04:08:46;;;;;;;6.70;6.10;;;;;;;-141.84;77.49;21037.50;5044547;28;20248;-61
2023/08/21 04:11:14;;;;;;;6.95;6.25;;;;;;;-141.84;78.02;21047.69;5044613;28;20240;-62
2023/08/21 04:13:44;;;;;;;7.53;6.72;;;;;;;-141.84;77.34;21072.06;5036985;28;20213;-61
2023/08/21 04:16:13;;;;;;;8.73;6.65;;;;;;;-141.84;78.02;21013.13;5044174;28;20314;-61
2023/08/21 04:18:42;;;;;;;7.78;6.47;;;;;;;-141.84;78.18;20988.72;5042726;28;20232;-60
2023/08/21 04:21:10;;;;;;;7.38;6.57;;;;;;;-141.84;77.88;21047.69;5043991;28;20241;-62
2023/08/21 04:23:39;;;;;;;9.45;7.07;;;;;;;-141.84;77.64;21076.13;5036385;28;20303;-61
2023/08/21 04:26:07;;;;;;;7.18;6.43;;;;;;;-141.84;77.76;21047.69;5044525;28;20239;-60
2023/08/21 04:28:37;;;;;;;10.30;7.10;;;;;;;-141.84;77.41;21114.75;5044511;28;20205;-61
2023/08/21 04:31:08;;;;;;;7.35;6.65;;;;;;;-141.84;77.22;21110.69;5058817;28;20271;-60
2023/08/21 04:33:36;;;;;;;7.80;7.00;;;;;;;-141.84;77.88;21049.72;5056242;28;20239;-60
2023/08/21 04:36:05;;;;;;;8.63;7.72;;;;;;;-141.84;77.88;21098.50;5044050;28;20241;-61
2023/08/21 04:38:34;;;;;;;8.50;7.40;;;;;;;-141.84;78.18;21053.78;5043921;28;20308;-61
2023/08/21 04:41:09;;;;;;;8.75;7.00;;;;;;;-141.84;78.54;21070.03;5044254;28;20201;-60
2023/08/21 04:43:38;;;;;;;8.45;7.65;;;;;;;-141.84;78.68;21076.13;5036541;28;20233;-61
2023/08/21 04:46:07;;;;;;;8.38;7.40;;;;;;;-141.84;78.17;21092.41;5043222;28;20724;-61
2023/08/21 04:48:36;;;;;;;11.05;8.27;;;;;;;-141.84;78.89;21104.59;5043509;28;20243;-60
2023/08/21 04:51:04;;;;;;;11.27;7.72;;;;;;;-141.84;78.82;21106.63;5043602;28;20260;-60
2023/08/21 04:53:33;;;;;;;11.10;7.72;;;;;;;-141.84;79.02;21086.31;5035876;28;20309;-61
2023/08/21 04:56:01;;;;;;;11.30;7.85;;;;;;;-141.84;78.93;21072.06;5062881;28;20231;-61
2023/08/21 04:58:30;;;;;;;8.55;7.75;;;;;;;-141.84;79.64;21061.91;5064064;28;20688;-61
2023/08/21 05:00:59;;;;;;;8.73;6.90;;;;;;;-141.84;80.27;21017.19;5045821;28;20235;-60
2023/08/21 05:03:29;;;;;;;11.43;7.63;;;;;;;-141.84;81.41;21025.31;5034383;28;20229;-60
2023/08/21 05:05:58;;;;;;;9.68;7.28;;;;;;;-141.84;81.03;21017.19;5024537;28;20234;-61
2023/08/21 05:08:27;;;;;;;10.05;7.60;;;;;;;-141.84;80.21;21076.13;5026309;28;20540;-61
2023/08/21 05:10:56;;;;;;;8.50;7.57;;;;;;;-141.84;79.50;21086.31;5043745;28;20274;-61
2023/08/21 05:13:25;;;;;;;8.95;8.05;;;;;;;-141.84;78.66;21151.34;5040415;28;20236;-61
2023/08/21 05:15:54;;;;;;;7.28;6.60;;;;;;;-141.84;78.87;21131.03;5042909;28;20261;-61
2023/08/21 05:18:24;;;;;;;7.00;6.30;;;;;;;-141.84;78.77;21143.22;5031179;28;20234;-61
2023/08/21 05:20:56;;;;;;;8.80;7.22;;;;;;;-141.84;77.90;21212.34;5023688;28;20240;-61
2023/08/21 05:23:25;;;;;;;7.32;6.65;;;;;;;-141.84;77.10;21238.78;5023877;28;20646;-62
2023/08/21 05:25:53;;;;;;;9.10;7.15;;;;;;;-141.84;76.63;21301.81;5043498;28;20283;-60
2023/08/21 05:28:22;;;;;;;9.57;7.45;;;;;;;-141.84;76.19;21344.50;5042678;28;20233;-61
2023/08/21 05:30:50;;;;;;;8.13;7.35;;;;;;;-141.84;74.13;21419.72;5055438;28;20256;-61
2023/08/21 05:33:19;;;;;;;8.52;7.60;;;;;;;-141.84;73.59;21427.88;5062484;28;20508;-61
2023/08/21 05:35:47;;;;;;;7.88;7.10;;;;;;;-141.84;73.81;21431.94;5036155;28;20273;-62
2023/08/21 05:38:17;;;;;;;8.95;8.07;;;;;;;-141.84;73.84;21442.09;5043128;28;20228;-62
2023/08/21 05:40:46;;;;;;;8.43;7.45;;;;;;;-141.84;73.59;21427.88;5043251;28;20612;-61
2023/08/21 05:43:14;;;;;;;9.38;7.43;;;;;;;-141.84;74.20;21448.19;5042507;28;20719;-60
2023/08/21 05:45:43;;;;;;;8.70;7.10;;;;;;;-141.84;74.29;21438.03;5034298;28;20711;-61
2023/08/21 05:48:11;;;;;;;9.65;8.02;;;;;;;-141.84;74.04;21425.84;5040443;28;20261;-61
2023/08/21 05:50:40;;;;;;;10.20;7.72;;;;;;;-141.84;73.54;21482.75;5043043;28;20285;-61
2023/08/21 05:53:08;;;;;;;10.18;7.45;;;;;;;-141.84;73.34;21480.72;5042502;28;20244;-61
2023/08/21 05:55:39;;;;;;;11.18;7.55;;;;;;;-141.84;73.41;21513.25;5050966;28;20263;-62
2023/08/21 05:58:08;;;;;;;10.25;7.70;;;;;;;-141.84;73.22;21525.47;5062137;28;20239;-61
2023/08/21 06:00:39;;;;;;;7.15;6.45;;;;;;;-141.84;72.94;21578.31;5047620;28;20315;-61
2023/08/21 06:03:08;;;;;;;9.85;8.38;;;;;;;-141.84;72.07;21604.75;5041783;28;20311;-60
2023/08/21 06:05:36;;;;;;;7.03;6.32;;;;;;;-141.84;71.47;21616.97;5033472;28;20237;-61
2023/08/21 06:08:05;;;;;;;8.38;7.40;;;;;;;-141.84;71.69;21619.00;5039541;28;20205;-61
2023/08/21 06:10:34;;;;;;;9.05;8.18;;;;;;;-141.84;70.64;21690.16;5035566;28;20233;-61
2023/08/21 06:13:04;;;;;;;11.52;8.45;;;;;;;-141.84;70.34;21730.81;5041627;28;20734;-61
2023/08/21 06:15:32;;;;;;;9.70;7.30;;;;;;;-141.84;70.20;21795.88;5033742;28;20646;-61
2023/08/21 06:18:01;;;;;;;8.02;7.00;;;;;;;-141.84;68.23;21940.25;5041423;28;20228;-61
2023/08/21 06:20:30;;;;;;;8.52;7.13;;;;;;;-141.84;68.38;21928.06;5042215;28;20229;-61
2023/08/21 06:22:59;;;;;;;9.23;6.43;;;;;;;-141.84;68.68;21883.31;5041564;28;20704;-63
2023/08/21 06:25:27;;;;;;;8.43;6.50;;;;;;;-141.84;67.04;21976.88;5034452;28;20656;-62
2023/08/21 06:27:56;;;;;;;11.55;6.82;;;;;;;-141.84;67.33;21954.50;5041524;28;20772;-61
2023/08/21 06:30:28;;;;;;;7.32;6.32;;;;;;;-141.84;68.75;21879.25;5039453;28;20217;-62
2023/08/21 06:32:57;;;;;;;7.72;6.30;;;;;;;-141.84;69.22;21867.06;5041306;28;20232;-61
2023/08/21 06:35:25;;;;;;;9.10;6.90;;;;;;;-141.84;66.93;21938.22;5029939;28;20217;-60
2023/08/21 06:37:55;;;;;;;7.80;6.68;;;;;;;-141.84;66.81;21956.53;5041988;28;20275;-61
2023/08/21 06:40:23;;;;;;;8.82;7.30;;;;;;;-141.84;67.24;21948.41;5039147;28;20260;-62
2023/08/21 06:42:52;;;;;;;10.68;7.00;;;;;;;-141.84;67.43;21993.13;5045469;28;20307;-60
2023/08/21 06:45:21;;;;;;;8.35;6.78;;;;;;;-141.84;67.01;21999.25;5043296;28;20232;-62
2023/08/21 06:47:51;;;;;;;8.07;5.90;;;;;;;-141.84;66.89;22074.47;5038807;28;20232;-60
2023/08/21 06:50:19;;;;;;;6.63;6.03;;;;;;;-141.84;65.82;22066.34;5045845;28;20283;-61
2023/08/21 06:52:48;;;;;;;7.60;6.80;;;;;;;-141.84;66.09;22048.03;5046379;28;20546;-61
2023/08/21 06:55:17;;;;;;;7.85;6.10;;;;;;;-141.84;65.04;22133.44;5045052;28;20229;-61
2023/08/21 06:57:45;;;;;;;7.82;6.80;;;;;;;-141.84;63.47;22263.59;5038366;28;23878;-61
2023/08/21 07:00:15;;;;;;;7.63;6.95;;;;;;;-141.84;63.59;22302.25;5045799;28;20287;-60
2023/08/21 07:02:43;;;;;;;7.38;6.40;;;;;;;-141.84;64.15;22237.16;5044906;28;20294;-61
2023/08/21 07:05:13;;;;;;;7.40;5.65;;;;;;;-141.84;64.39;22202.59;5044246;28;20205;-61
2023/08/21 07:07:42;;;;;;;7.10;5.75;;;;;;;-141.84;65.09;22174.13;5038070;28;20221;-60
2023/08/21 07:10:11;;;;;;;6.97;6.15;;;;;;;-141.84;65.25;22174.13;5044806;28;20214;-62
2023/08/21 07:12:40;;;;;;;8.50;7.15;;;;;;;-141.84;63.72;22316.47;5045982;28;20311;-60
2023/08/21 07:15:09;;;;;;;12.18;6.82;;;;;;;-141.84;62.64;22355.13;5035905;28;20275;-61
2023/08/21 07:17:38;;;;;;;8.43;6.57;;;;;;;-141.84;63.15;22328.69;5010694;28;20265;-61
2023/08/21 07:20:08;;;;;;;8.98;7.15;;;;;;;-141.84;63.54;22312.41;5045374;28;20255;-60
2023/08/21 07:22:38;;;;;;;8.85;7.25;;;;;;;-141.84;64.69;22259.53;5043467;28;20201;-60
2023/08/21 07:25:08;;;;;;;8.82;7.93;;;;;;;-141.84;65.72;22137.50;5045470;28;20279;-61
2023/08/21 07:27:36;;;;;;;7.43;6.70;;;;;;;-141.84;67.29;22048.03;5037575;28;20767;-61
2023/08/21 07:30:06;;;;;;;7.68;6.97;;;;;;;-141.84;68.72;21970.78;5045351;28;20229;-62
2023/08/21 07:32:35;;;;;;;8.90;7.15;;;;;;;-141.84;69.79;21946.38;5044506;28;20274;-61
2023/08/21 07:35:05;;;;;;;7.22;6.50;;;;;;;-141.84;69.97;21869.09;5044700;28;20224;-61
2023/08/21 07:37:33;;;;;;;7.55;6.90;;;;;;;-141.84;70.53;21881.28;5037522;28;20217;-60
2023/08/21 07:40:04;;;;;;;9.13;7.28;;;;;;;-141.84;70.62;21852.81;5044736;28;20311;-62
2023/08/21 07:42:33;;;;;;;6.97;6.35;;;;;;;-141.84;70.48;21889.44;5044572;28;20268;-61
2023/08/21 07:45:02;;;;;;;9.18;7.13;;;;;;;-141.84;70.37;21895.53;5044937;28;20602;-61
2023/08/21 07:47:30;;;;;;;11.82;8.90;;;;;;;-141.84;69.93;21926.03;5036058;28;20251;-61
2023/08/21 07:50:01;;;;;;;11.93;8.75;;;;;;;-141.84;69.78;21930.09;5045011;28;20311;-61
2023/08/21 07:52:30;;;;;;;11.75;8.30;;;;;;;-141.84;70.80;21822.31;5045299;28;20263;-61
2023/08/21 07:55:00;;;;;;;10.50;8.73;;;;;;;-141.84;71.29;21808.09;5044620;28;20700;-61
2023/08/21 07:57:30;;;;;;;12.10;8.38;;;;;;;-141.84;71.11;21830.47;5036965;28;20221;-61
2023/08/21 07:59:59;;;;;;;12.65;9.20;;;;;;;-141.84;71.22;21761.31;5044639;28;20738;-60
2023/08/21 08:02:27;;;;;;;10.02;8.85;;;;;;;-141.84;71.14;21749.13;5043847;28;20221;-60
2023/08/21 08:04:56;;;;;;;9.68;7.85;;;;;;;-141.84;71.85;21700.31;5044605;28;20669;-60
2023/08/21 08:07:26;;;;;;;8.73;7.93;;;;;;;-141.84;73.08;21629.16;5042584;28;20722;-61
2023/08/21 08:09:55;;;;;;;9.98;7.30;;;;;;;-141.84;74.31;21566.13;5044267;28;20236;-63
2023/08/21 08:12:23;;;;;;;12.95;8.18;;;;;;;-141.84;75.01;21537.66;5024940;28;20368;-60
2023/08/21 08:14:53;;;;;;;11.30;8.95;;;;;;;-141.84;75.01;21566.13;5034245;28;20218;-60
2023/08/21 08:17:22;;;;;;;9.70;8.57;;;;;;;-141.84;74.54;21629.16;5043472;28;20233;-61
2023/08/21 08:19:50;;;;;;;9.10;7.78;;;;;;;-141.84;74.49;21633.22;5038729;28;20231;-60
2023/08/21 08:22:19;;;;;;;10.55;9.15;;;;;;;-141.84;72.57;21728.78;5044260;28;20253;-61
2023/08/21 08:24:47;;;;;;;10.55;8.90;;;;;;;-141.84;72.67;21747.09;5044175;28;20263;-60
2023/08/21 08:27:16;;;;;;;8.43;7.65;;;;;;;-141.84;72.36;21785.72;5044194;28;20252;-61
2023/08/21 08:29:44;;;;;;;9.23;7.55;;;;;;;-141.84;71.44;21810.13;5035645;28;20275;-61
2023/08/21 08:32:14;;;;;;;9.60;8.23;;;;;;;-141.84;70.59;21903.66;5043673;28;20654;-61
2023/08/21 08:34:46;;;;;;;9.45;7.50;;;;;;;-141.84;69.99;21952.47;5043997;28;20222;-62
2023/08/21 08:37:15;;;;;;;8.00;7.20;;;;;;;-141.84;66.63;22155.81;5044449;28;20674;-62
2023/08/21 08:39:43;;;;;;;10.13;7.80;;;;;;;-141.84;64.85;22306.31;5036107;28;20233;-61
2023/08/21 08:42:12;;;;;;;10.77;6.55;;;;;;;-141.84;64.87;22298.16;5044384;28;20257;-61
2023/08/21 08:44:42;;;;;;;7.47;6.78;;;;;;;-141.84;63.99;22318.50;5043859;28;20321;-61
2023/08/21 08:47:11;;;;;;;9.15;6.65;;;;;;;-141.84;62.92;22397.81;5043126;28;20744;-61
2023/08/21 08:49:41;;;;;;;11.23;6.97;;;;;;;-141.84;63.22;22424.25;5036658;28;20272;-61
2023/08/21 08:52:12;;;;;;;10.55;7.05;;;;;;;-141.84;62.28;22387.66;5043125;28;20243;-62
2023/08/21 08:54:40;;;;;;;9.43;5.78;;;;;;;-141.84;62.88;22359.19;5043733;28;20271;-62
2023/08/21 08:57:09;;;;;;;7.00;6.30;;;;;;;-141.84;62.59;22424.25;5043699;28;20225;-60
2023/08/21 08:59:38;;;;;;;7.30;6.60;;;;;;;-141.84;63.40;22346.97;5035628;28;20229;-60
2023/08/21 09:02:06;;;;;;;8.52;6.80;;;;;;;-141.84;63.64;22371.38;5042418;28;20297;-60
2023/08/21 09:04:34;;;;;;;6.68;6.07;;;;;;;-141.84;64.13;22298.16;5041131;28;20231;-61
2023/08/21 09:07:11;;;;;;;8.43;6.30;;;;;;;-141.84;64.50;22346.97;5043237;28;20319;-61
2023/08/21 09:09:41;;;;;;;8.50;7.03;;;;;;;-141.84;63.89;22385.63;5035131;28;20229;-60
2023/08/21 09:12:12;;;;;;;10.20;6.47;;;;;;;-141.84;63.35;22418.16;5042590;28;20723;-61
2023/08/21 09:14:41;;;;;;;6.68;6.00;;;;;;;-141.84;63.82;22344.94;5043659;28;20300;-60
2023/08/21 09:17:10;;;;;;;6.80;6.00;;;;;;;-141.84;62.67;22491.38;5042620;28;20264;-60
2023/08/21 09:19:38;;;;;;;7.18;6.47;;;;;;;-141.84;62.84;22442.56;5035600;28;20262;-61
2023/08/21 09:25:56;;;;;;;7.07;5.85;;;;;;;-141.84;60.94;22627.63;5029139;28;20279;-60
2023/08/21 09:28:26;;;;;;;6.07;5.18;;;;;;;-141.84;60.71;22668.31;5043452;28;20251;-61
2023/08/21 09:34:41;;;;;;;5.53;4.78;;;;;;;-141.84;57.33;22798.47;5031785;28;20757;-61
2023/08/21 09:37:11;;;;;;;6.55;5.07;;;;;;;-141.84;56.23;22814.75;5043791;28;20724;-62
2023/08/21 09:39:41;;;;;;;7.65;4.95;;;;;;;-141.84;56.35;22839.16;5035241;28;20267;-61
2023/08/21 09:42:11;;;;;;;9.00;5.30;;;;;;;-141.84;56.12;22814.75;5042713;28;20328;-61
2023/08/21 09:44:43;;;;;;;6.82;5.10;;;;;;;-141.84;56.87;22709.00;5042666;28;20332;-61
2023/08/21 09:47:12;;;;;;;5.80;5.00;;;;;;;-141.84;57.69;22698.81;5042619;28;20251;-61
2023/08/21 09:49:41;;;;;;;5.38;4.80;;;;;;;-141.84;55.07;22698.81;5034807;28;20205;-60
2023/08/21 09:52:11;;;;;;;5.40;4.90;;;;;;;-141.84;55.94;22690.69;5042736;28;20323;-61
2023/08/21 09:54:41;;;;;;;5.82;4.63;;;;;;;-141.84;56.46;22709.00;5042700;28;20228;-62
2023/08/21 09:57:13;;;;;;;7.50;4.57;;;;;;;-141.84;55.00;22778.16;5042331;28;20721;-62
2023/08/21 09:59:42;;;;;;;5.32;3.95;;;;;;;-141.84;53.84;22869.66;5035057;28;20290;-62
2023/08/21 10:02:11;;;;;;;6.40;4.38;;;;;;;-141.84;52.43;22900.19;5042160;28;20233;-61
2023/08/21 10:04:45;;;;;;;5.32;4.22;;;;;;;-141.84;53.26;22869.66;5042730;28;20236;-61
2023/08/21 10:07:16;;;;;;;5.38;4.30;;;;;;;-141.84;53.25;22885.94;5023422;28;20697;-62
2023/08/21 10:13:28;;;;;;;5.10;3.30;;;;;;;-141.84;50.84;22932.72;5014791;28;20221;-60
2023/08/21 10:19:53;;;;;;;3.45;3.15;;;;;;;-141.84;51.20;22869.66;5033563;28;20236;-61
2023/08/21 10:22:38;;;;;;;4.70;3.63;;;;;;;-141.84;50.56;22934.75;5042105;28;20260;-62
2023/08/21 10:25:16;;;;;;;4.07;3.03;;;;;;;-141.84;50.29;22922.56;5042122;28;20232;-60
2023/08/21 10:27:46;;;;;;;5.32;3.30;;;;;;;-141.84;49.80;22953.06;5034529;28;21124;-62
2023/08/21 10:30:21;;;;;;;4.93;3.10;;;;;;;-141.84;49.56;23014.09;5042063;28;20282;-61
2023/08/21 10:32:51;;;;;;;3.70;2.78;;;;;;;-141.84;48.15;23042.56;5035116;28;20300;-60
2023/08/21 10:35:22;;;;;;;4.18;2.75;;;;;;;-141.84;48.05;23046.63;5011569;28;20276;-62
2023/08/21 10:38:10;;;;;;;3.10;2.80;;;;;;;-141.84;47.53;23069.00;5018003;28;20313;-61
2023/08/21 10:40:40;;;;;;;2.97;2.70;;;;;;;-141.84;46.47;23091.38;5002737;28;20313;-62
2023/08/21 10:43:40;;;;;;;3.75;2.20;;;;;;;-141.84;45.56;23115.78;5020247;28;20610;-60
2023/08/21 10:46:10;;;;;;;2.55;2.10;;;;;;;-141.84;45.16;23099.50;5028646;28;20233;-61
2023/08/21 10:48:39;;;;;;;3.75;2.17;;;;;;;-141.84;45.07;23115.78;5041974;28;20221;-62
2023/08/21 10:51:09;;;;;;;2.45;2.20;;;;;;;-141.84;44.28;23146.28;5042198;28;20249;-61
2023/08/21 10:53:38;;;;;;;1.95;1.85;;;;;;;-141.84;43.75;23132.06;5032916;28;20271;-62
2023/08/21 10:56:07;;;;;;;3.35;2.05;;;;;;;-141.84;44.48;23132.06;5041562;28;20308;-62
2023/08/21 10:58:39;;;;;;;3.00;2.28;;;;;;;-141.84;44.68;23107.66;5042142;28;20313;-62
2023/08/21 11:01:09;;;;;;;3.25;2.30;;;;;;;-141.84;44.79;23132.06;5041946;28;20719;-62
2023/08/21 11:03:40;;;;;;;2.42;2.22;;;;;;;-141.84;44.79;23148.34;5033257;28;20249;-60
2023/08/21 11:06:11;;;;;;;3.42;2.38;;;;;;;-141.84;45.64;23168.69;5041631;28;20261;-61
2023/08/21 11:08:40;;;;;;;3.13;2.10;;;;;;;-141.84;44.74;23195.13;5041258;28;20221;-63
2023/08/21 11:11:09;;;;;;;2.13;1.92;;;;;;;-141.84;44.39;23241.91;5041358;28;20251;-61
2023/08/21 11:13:37;;;;;;;2.38;2.17;;;;;;;-141.84;45.04;23243.94;5033665;28;20294;-62
2023/08/21 11:16:09;;;;;;;2.45;2.22;;;;;;;-141.84;45.48;23186.97;5041395;28;20237;-62
2023/08/21 11:18:38;;;;;;;2.63;2.42;;;;;;;-141.84;45.05;23262.25;5041276;28;20280;-60
2023/08/21 11:21:09;;;;;;;3.28;2.55;;;;;;;-141.84;45.31;23270.38;5041522;28;20287;-61
2023/08/21 11:23:40;;;;;;;2.75;2.45;;;;;;;-141.84;45.38;23274.44;5033453;28;20232;-60
2023/08/21 11:26:12;;;;;;;2.75;2.50;;;;;;;-141.84;45.86;23262.25;5041503;28;20296;-61
2023/08/21 11:28:43;;;;;;;3.72;2.45;;;;;;;-141.84;45.50;23302.94;5048259;28;20212;-63
2023/08/21 11:31:14;;;;;;;2.83;2.47;;;;;;;-141.84;45.49;23307.00;5044449;28;20732;-61
2023/08/21 11:33:49;;;;;;;3.95;2.90;;;;;;;-141.84;46.10;23252.06;5037036;28;20233;-61
2023/08/21 11:36:18;;;;;;;3.00;2.40;;;;;;;-141.84;46.21;23276.47;5045190;28;20243;-61
2023/08/21 11:39:00;;;;;;;2.47;2.22;;;;;;;-141.84;46.44;23258.19;5044998;28;20335;-61
2023/08/21 11:41:28;;;;;;;3.33;2.45;;;;;;;-141.84;46.41;23341.56;5037430;28;20712;-60
2023/08/21 11:44:04;;;;;;;3.05;2.20;;;;;;;-141.84;45.83;23351.75;5045405;28;20252;-60